Time;durP1;ratioP1;P1;durP2;ratioP2;P2;SDS_P1;SDS_P2;PMS_P1;PMS_P2;Temp;Humidity;BMP_temperature;BMP_pressure;BME280_temperature;BME280_humidity;BME280_pressure;Samples;Min_cycle;Max_cycle;Signal;HPM_P1;HPM_P2
2023/11/02 00:01:04;;;;;;;11.85;7.22;;;;;;;;;;4376086;32;348012;-88
2023/11/02 00:03:33;;;;;;;9.02;5.82;;;;;;;;;;4362099;32;421062;-87
2023/11/02 00:06:21;;;;;;;10.07;6.40;;;;;;;;;;4358894;32;317344;-88
2023/11/02 00:09:10;;;;;;;9.87;6.30;;;;;;;;;;4365809;32;318215;-89
2023/11/02 00:11:51;;;;;;;13.83;6.90;;;;;;;;;;4375139;32;330985;-89
2023/11/02 00:14:18;;;;;;;15.23;6.80;;;;;;;;;;4363670;32;419609;-93
2023/11/02 00:16:45;;;;;;;16.27;6.63;;;;;;;;;;4366494;32;318711;-86
2023/11/02 00:19:29;;;;;;;12.83;6.70;;;;;;;;;;4376547;32;318313;-86
2023/11/02 00:21:56;;;;;;;8.83;5.73;;;;;;;;;;4359803;32;318101;-86
2023/11/02 00:24:23;;;;;;;14.27;6.60;;;;;;;;;;4376627;32;317723;-86
2023/11/02 00:26:50;;;;;;;12.50;6.07;;;;;;;;;;4365504;32;318271;-86
2023/11/02 00:29:17;;;;;;;11.83;6.57;;;;;;;;;;4375762;32;318077;-87
2023/11/02 00:31:44;;;;;;;11.70;6.53;;;;;;;;;;4364394;32;318726;-91
2023/11/02 00:34:11;;;;;;;10.97;6.97;;;;;;;;;;4371813;32;318340;-86
2023/11/02 00:36:39;;;;;;;11.90;7.55;;;;;;;;;;4366820;32;318741;-86
2023/11/02 00:39:06;;;;;;;16.10;7.77;;;;;;;;;;4376566;32;318521;-88
2023/11/02 00:41:33;;;;;;;12.80;7.50;;;;;;;;;;4375840;32;318099;-88
2023/11/02 00:44:00;;;;;;;11.95;6.68;;;;;;;;;;4359417;32;317486;-86
2023/11/02 00:46:27;;;;;;;11.38;7.10;;;;;;;;;;4374861;32;317925;-87
2023/11/02 00:48:54;;;;;;;18.37;8.80;;;;;;;;;;4365120;32;318317;-88
2023/11/02 00:51:27;;;;;;;16.45;7.15;;;;;;;;;;4376946;32;318563;-89
2023/11/02 00:53:57;;;;;;;12.50;6.20;;;;;;;;;;4346448;32;318287;-87
2023/11/02 00:56:28;;;;;;;14.67;6.67;;;;;;;;;;4375147;32;318520;-89
2023/11/02 00:58:55;;;;;;;11.33;6.80;;;;;;;;;;4365042;32;318289;-87
2023/11/02 01:01:23;;;;;;;17.07;7.67;;;;;;;;;;4376387;32;318054;-85
2023/11/02 01:03:52;;;;;;;13.13;8.40;;;;;;;;;;4359400;32;317622;-87
2023/11/02 01:06:21;;;;;;;11.43;7.07;;;;;;;;;;4376132;32;318333;-86
2023/11/02 01:09:36;;;;;;;11.37;6.57;;;;;;;;;;4366168;32;318685;-85
2023/11/02 01:12:05;;;;;;;13.60;6.73;;;;;;;;;;4356842;32;318444;-88
2023/11/02 01:14:47;;;;;;;13.70;7.03;;;;;;;;;;4360604;32;317751;-87
2023/11/02 01:17:30;;;;;;;9.40;6.37;;;;;;;;;;4347163;32;420013;-88
2023/11/02 01:20:05;;;;;;;10.37;6.10;;;;;;;;;;4344481;32;317243;-86
2023/11/02 01:22:54;;;;;;;10.03;6.57;;;;;;;;;;4360613;32;318567;-87
2023/11/02 01:25:25;;;;;;;9.63;6.40;;;;;;;;;;4347922;32;416901;-89
2023/11/02 01:27:55;;;;;;;14.60;6.00;;;;;;;;;;4343468;32;318073;-87
2023/11/02 01:31:05;;;;;;;12.75;6.70;;;;;;;;;;4358645;32;317900;-87
2023/11/02 01:33:59;;;;;;;17.10;6.03;;;;;;;;;;4330673;32;416926;-85
2023/11/02 01:36:30;;;;;;;14.33;6.00;;;;;;;;;;4354456;32;417454;-85
2023/11/02 01:39:02;;;;;;;11.97;8.20;;;;;;;;;;4365732;32;318162;-85
2023/11/02 01:41:39;;;;;;;17.07;8.77;;;;;;;;;;4375615;32;318126;-87
2023/11/02 01:44:14;;;;;;;13.13;8.67;;;;;;;;;;4355073;32;419387;-86
2023/11/02 01:46:53;;;;;;;16.53;9.50;;;;;;;;;;4365792;32;318670;-86
2023/11/02 01:49:29;;;;;;;27.57;11.30;;;;;;;;;;4379369;32;318079;-89
2023/11/02 01:52:03;;;;;;;14.20;9.60;;;;;;;;;;4376119;32;319831;-86
2023/11/02 01:54:43;;;;;;;13.37;9.30;;;;;;;;;;4388415;32;317807;-87
2023/11/02 02:00:39;;;;;;;12.77;8.20;;;;;;;;;;4362517;32;389470;-91
2023/11/02 02:03:18;;;;;;;13.77;9.07;;;;;;;;;;4359393;32;419424;-89
2023/11/02 02:05:53;;;;;;;11.53;7.13;;;;;;;;;;4357813;32;327762;-89
2023/11/02 02:08:34;;;;;;;12.77;7.97;;;;;;;;;;4337652;32;418906;-87
2023/11/02 02:11:15;;;;;;;11.00;7.47;;;;;;;;;;4348710;32;318332;-87
2023/11/02 02:13:58;;;;;;;14.05;8.38;;;;;;;;;;4357539;32;320956;-87
2023/11/02 02:16:33;;;;;;;10.77;6.80;;;;;;;;;;4353110;32;418503;-87
2023/11/02 02:19:11;;;;;;;13.83;7.03;;;;;;;;;;4362762;32;318253;-86
2023/11/02 02:21:46;;;;;;;12.03;6.77;;;;;;;;;;4374264;32;318650;-86
2023/11/02 02:24:23;;;;;;;14.77;7.03;;;;;;;;;;4356021;32;317757;-86
2023/11/02 02:27:20;;;;;;;9.60;5.33;;;;;;;;;;4374376;32;317673;-90
2023/11/02 02:30:12;;;;;;;8.03;5.37;;;;;;;;;;4361702;32;417403;-90
2023/11/02 02:33:01;;;;;;;10.75;5.53;;;;;;;;;;4353625;32;417201;-86
2023/11/02 02:35:36;;;;;;;8.25;6.05;;;;;;;;;;4359524;32;418315;-88
2023/11/02 02:38:06;;;;;;;11.13;6.70;;;;;;;;;;4356065;32;317150;-86
2023/11/02 02:40:35;;;;;;;7.72;6.10;;;;;;;;;;4374391;32;317836;-87
2023/11/02 02:43:03;;;;;;;10.17;6.43;;;;;;;;;;4364589;32;317683;-87
2023/11/02 02:45:31;;;;;;;7.37;5.83;;;;;;;;;;4373627;32;344276;-87
2023/11/02 02:48:01;;;;;;;8.87;5.67;;;;;;;;;;4363415;32;317949;-86
2023/11/02 02:50:31;;;;;;;9.77;5.67;;;;;;;;;;4361429;32;316782;-87
2023/11/02 02:52:59;;;;;;;10.57;6.40;;;;;;;;;;4363964;32;317093;-85
2023/11/02 02:55:28;;;;;;;13.20;7.67;;;;;;;;;;4374180;32;317740;-86
2023/11/02 02:57:58;;;;;;;8.38;6.45;;;;;;;;;;4373723;32;318449;-87
2023/11/02 03:00:28;;;;;;;9.43;7.10;;;;;;;;;;4340721;32;387683;-88
2023/11/02 03:02:58;;;;;;;14.87;8.37;;;;;;;;;;4353878;32;322870;-84
2023/11/02 03:05:25;;;;;;;19.77;9.25;;;;;;;;;;4361545;32;420917;-87
2023/11/02 03:07:54;;;;;;;17.80;9.40;;;;;;;;;;4374637;32;318295;-85
2023/11/02 03:10:22;;;;;;;15.73;9.30;;;;;;;;;;4353863;32;415265;-85
2023/11/02 03:12:51;;;;;;;17.20;9.27;;;;;;;;;;4372896;32;349619;-85
2023/11/02 03:15:27;;;;;;;12.57;8.97;;;;;;;;;;4348299;32;318292;-88
2023/11/02 03:18:06;;;;;;;13.43;9.90;;;;;;;;;;4372550;32;317393;-85
2023/11/02 03:20:33;;;;;;;15.73;9.30;;;;;;;;;;4363582;32;417540;-87
2023/11/02 03:23:11;;;;;;;14.63;9.10;;;;;;;;;;4366128;32;318674;-86
2023/11/02 03:25:49;;;;;;;12.07;9.23;;;;;;;;;;4376124;32;318361;-89
2023/11/02 03:28:26;;;;;;;12.47;9.33;;;;;;;;;;4358367;32;318103;-86
2023/11/02 03:31:04;;;;;;;11.80;8.87;;;;;;;;;;4376549;32;318301;-86
2023/11/02 03:33:44;;;;;;;19.70;10.07;;;;;;;;;;4363594;32;416986;-86
2023/11/02 03:36:18;;;;;;;16.43;8.70;;;;;;;;;;4359803;32;324863;-86
2023/11/02 03:39:02;;;;;;;14.60;9.20;;;;;;;;;;4376457;32;318127;-87
2023/11/02 03:41:45;;;;;;;15.90;9.55;;;;;;;;;;4363021;32;419624;-87
2023/11/02 03:44:18;;;;;;;17.67;9.27;;;;;;;;;;4357901;32;318291;-87
2023/11/02 03:46:53;;;;;;;15.57;8.50;;;;;;;;;;4376872;32;318278;-86
2023/11/02 03:49:27;;;;;;;12.97;8.13;;;;;;;;;;4364399;32;379978;-84
2023/11/02 03:52:05;;;;;;;15.18;9.13;;;;;;;;;;4376491;32;318745;-86
2023/11/02 03:54:59;;;;;;;13.73;9.20;;;;;;;;;;4340165;32;418745;-87
2023/11/02 03:57:31;;;;;;;16.13;9.10;;;;;;;;;;4348543;32;418618;-87
2023/11/02 04:00:06;;;;;;;15.30;9.27;;;;;;;;;;4352154;32;318507;-85
2023/11/02 04:02:36;;;;;;;11.43;7.63;;;;;;;;;;4360793;32;318338;-87
2023/11/02 04:05:14;;;;;;;11.37;6.97;;;;;;;;;;4350744;32;318449;-89
2023/11/02 04:07:57;;;;;;;8.53;6.27;;;;;;;;;;4361920;32;318174;-87
2023/11/02 04:10:27;;;;;;;8.03;6.27;;;;;;;;;;4345171;32;417780;-86
2023/11/02 04:13:03;;;;;;;7.43;4.80;;;;;;;;;;4376801;32;317220;-93
2023/11/02 04:15:31;;;;;;;9.53;6.67;;;;;;;;;;4363825;32;417478;-89
2023/11/02 04:17:58;;;;;;;10.63;6.63;;;;;;;;;;4366217;32;317464;-87
2023/11/02 04:20:25;;;;;;;11.23;6.93;;;;;;;;;;4373467;32;318024;-86
2023/11/02 04:22:53;;;;;;;15.23;8.23;;;;;;;;;;4376826;32;318353;-87
2023/11/02 04:25:20;;;;;;;12.27;8.77;;;;;;;;;;4366284;32;326240;-87
2023/11/02 04:27:48;;;;;;;11.07;9.27;;;;;;;;;;4376434;32;317471;-89
2023/11/02 04:30:16;;;;;;;17.07;9.13;;;;;;;;;;4344488;32;318294;-90
2023/11/02 04:32:43;;;;;;;12.40;9.03;;;;;;;;;;4356475;32;317813;-87
2023/11/02 04:35:12;;;;;;;16.60;10.13;;;;;;;;;;4365843;32;318586;-86
2023/11/02 04:37:39;;;;;;;20.70;10.77;;;;;;;;;;4371879;32;319281;-87
2023/11/02 04:40:09;;;;;;;14.70;10.47;;;;;;;;;;4359796;32;319669;-90
2023/11/02 04:42:36;;;;;;;17.63;10.20;;;;;;;;;;4375318;32;355070;-88
2023/11/02 04:45:05;;;;;;;14.33;9.93;;;;;;;;;;4365899;32;319114;-89
2023/11/02 04:47:32;;;;;;;19.30;10.00;;;;;;;;;;4374938;32;318425;-89
2023/11/02 04:50:00;;;;;;;17.53;10.23;;;;;;;;;;4361874;32;321182;-89
2023/11/02 04:52:35;;;;;;;22.33;10.47;;;;;;;;;;4376241;32;319244;-87
2023/11/02 04:55:02;;;;;;;15.83;10.97;;;;;;;;;;4365075;32;319537;-86
2023/11/02 04:57:29;;;;;;;14.37;9.80;;;;;;;;;;4376626;32;319217;-88
2023/11/02 04:59:55;;;;;;;16.90;9.57;;;;;;;;;;4366087;32;317801;-87
2023/11/02 05:02:24;;;;;;;13.30;10.53;;;;;;;;;;4367851;32;318498;-87
2023/11/02 05:04:51;;;;;;;13.93;10.20;;;;;;;;;;4375526;32;344127;-87
2023/11/02 05:07:18;;;;;;;15.60;10.47;;;;;;;;;;4371893;32;319499;-87
2023/11/02 05:09:45;;;;;;;14.97;10.23;;;;;;;;;;4391543;32;319106;-89
2023/11/02 05:12:11;;;;;;;15.90;8.50;;;;;;;;;;4372842;32;319201;-89
2023/11/02 05:14:38;;;;;;;12.43;8.77;;;;;;;;;;4385931;32;318336;-87
2023/11/02 05:17:05;;;;;;;17.50;9.07;;;;;;;;;;4365021;32;318142;-88
2023/11/02 05:19:33;;;;;;;23.00;10.17;;;;;;;;;;4376494;32;318371;-90
2023/11/02 05:21:59;;;;;;;15.48;9.15;;;;;;;;;;4363949;32;319821;-85
2023/11/02 05:24:26;;;;;;;15.97;10.27;;;;;;;;;;4372251;32;318836;-89
2023/11/02 05:26:53;;;;;;;12.60;9.40;;;;;;;;;;4375621;32;319242;-86
2023/11/02 05:29:21;;;;;;;17.50;8.33;;;;;;;;;;4357168;32;318668;-89
2023/11/02 05:31:47;;;;;;;15.10;8.17;;;;;;;;;;4374747;32;317697;-86
2023/11/02 05:34:15;;;;;;;15.60;7.20;;;;;;;;;;4357243;32;318426;-89
2023/11/02 05:36:43;;;;;;;13.23;8.63;;;;;;;;;;4376086;32;318534;-87
2023/11/02 05:39:09;;;;;;;13.30;9.40;;;;;;;;;;4365249;32;318192;-87
2023/11/02 05:41:36;;;;;;;10.40;8.53;;;;;;;;;;4373680;32;317657;-88
2023/11/02 05:44:03;;;;;;;15.97;10.50;;;;;;;;;;4359279;32;318404;-86
2023/11/02 05:46:30;;;;;;;14.57;10.67;;;;;;;;;;4375091;32;318873;-87
2023/11/02 05:48:56;;;;;;;18.53;9.97;;;;;;;;;;4364994;32;319415;-86
2023/11/02 05:51:23;;;;;;;20.03;12.50;;;;;;;;;;4374549;32;318181;-86
2023/11/02 05:53:51;;;;;;;23.30;13.53;;;;;;;;;;4375677;32;319484;-87
2023/11/02 05:56:18;;;;;;;30.93;20.77;;;;;;;;;;4350669;32;319567;-87
2023/11/02 05:58:45;;;;;;;27.23;18.83;;;;;;;;;;4375205;32;319120;-88
2023/11/02 06:01:12;;;;;;;25.60;12.63;;;;;;;;;;4362635;32;318830;-86
2023/11/02 06:03:39;;;;;;;16.77;10.37;;;;;;;;;;4373371;32;340698;-87
2023/11/02 06:06:07;;;;;;;16.93;9.47;;;;;;;;;;4344729;32;319373;-86
2023/11/02 06:08:34;;;;;;;14.60;9.27;;;;;;;;;;4375757;32;317685;-87
2023/11/02 06:11:01;;;;;;;15.37;9.33;;;;;;;;;;4365686;32;317398;-87
2023/11/02 06:13:28;;;;;;;12.53;8.67;;;;;;;;;;4391025;32;317517;-89
2023/11/02 06:15:54;;;;;;;15.37;9.77;;;;;;;;;;4392088;32;317691;-85
2023/11/02 06:18:22;;;;;;;14.63;9.63;;;;;;;;;;4357701;32;416183;-87
2023/11/02 06:20:48;;;;;;;17.07;12.50;;;;;;;;;;4374429;32;317935;-86
2023/11/02 06:23:16;;;;;;;17.47;10.33;;;;;;;;;;4363339;32;350160;-88
2023/11/02 06:25:44;;;;;;;21.42;12.25;;;;;;;;;;4373946;32;319636;-88
2023/11/02 06:28:12;;;;;;;18.05;12.10;;;;;;;;;;4355784;32;319078;-86
2023/11/02 06:30:38;;;;;;;16.07;12.23;;;;;;;;;;4373842;32;319177;-88
2023/11/02 06:33:08;;;;;;;18.77;11.87;;;;;;;;;;4361397;32;358506;-85
2023/11/02 06:35:36;;;;;;;17.27;12.97;;;;;;;;;;4373846;32;318807;-84
2023/11/02 06:38:05;;;;;;;15.73;11.57;;;;;;;;;;4355796;32;318842;-85
2023/11/02 06:40:32;;;;;;;21.50;12.23;;;;;;;;;;4374256;32;319465;-87
2023/11/02 06:42:59;;;;;;;14.60;12.50;;;;;;;;;;4362359;32;319751;-85
2023/11/02 06:45:27;;;;;;;15.10;11.10;;;;;;;;;;4377127;32;318750;-84
2023/11/02 06:47:56;;;;;;;14.32;10.52;;;;;;;;;;4376061;32;319397;-89
2023/11/02 06:50:24;;;;;;;15.40;11.45;;;;;;;;;;4357950;32;419964;-92
2023/11/02 06:52:50;;;;;;;19.95;12.18;;;;;;;;;;4370729;32;319080;-86
2023/11/02 06:55:17;;;;;;;16.37;11.98;;;;;;;;;;4363271;32;336338;-88
2023/11/02 06:57:44;;;;;;;19.95;14.85;;;;;;;;;;4374758;32;318840;-82
2023/11/02 07:00:12;;;;;;;25.58;16.95;;;;;;;;;;4357098;32;319381;-83
2023/11/02 07:02:40;;;;;;;25.57;16.13;;;;;;;;;;4355564;32;318432;-82
2023/11/02 07:05:08;;;;;;;19.45;12.15;;;;;;;;;;4361409;32;319546;-82
2023/11/02 07:07:38;;;;;;;15.43;10.40;;;;;;;;;;4377775;32;318738;-86
2023/11/02 07:10:07;;;;;;;18.12;11.02;;;;;;;;;;4361062;32;319257;-82
2023/11/02 07:12:33;;;;;;;13.37;9.63;;;;;;;;;;4377816;32;319614;-83
2023/11/02 07:15:00;;;;;;;18.10;11.03;;;;;;;;;;4364563;32;321099;-89
2023/11/02 07:17:27;;;;;;;19.70;11.10;;;;;;;;;;4378647;32;319593;-92
2023/11/02 07:19:55;;;;;;;21.37;11.20;;;;;;;;;;4377395;32;319231;-88
2023/11/02 07:22:22;;;;;;;14.33;11.17;;;;;;;;;;4358546;32;419399;-96
2023/11/02 07:24:49;;;;;;;13.37;10.67;;;;;;;;;;4375766;32;339610;-88
2023/11/02 07:27:16;;;;;;;15.17;9.63;;;;;;;;;;4367498;32;319193;-85
2023/11/02 07:29:44;;;;;;;14.53;9.70;;;;;;;;;;4378537;32;317810;-84
2023/11/02 07:32:12;;;;;;;17.47;11.57;;;;;;;;;;4359158;32;318521;-84
2023/11/02 07:34:38;;;;;;;17.40;11.37;;;;;;;;;;4374888;32;319397;-91
2023/11/02 07:37:07;;;;;;;17.77;10.73;;;;;;;;;;4355575;32;319184;-89
2023/11/02 07:39:35;;;;;;;16.50;11.20;;;;;;;;;;4361124;32;319161;-95
2023/11/02 07:42:02;;;;;;;26.63;10.77;;;;;;;;;;4345637;32;319352;-85
2023/11/02 07:44:28;;;;;;;19.80;11.40;;;;;;;;;;4359847;32;319622;-92
2023/11/02 07:46:55;;;;;;;23.27;14.93;;;;;;;;;;4362437;32;322419;-83
2023/11/02 07:49:22;;;;;;;18.67;12.87;;;;;;;;;;4361325;32;420256;-86
2023/11/02 07:51:48;;;;;;;19.50;12.40;;;;;;;;;;4375494;32;319507;-88
2023/11/02 07:54:16;;;;;;;18.23;12.27;;;;;;;;;;4351171;32;325898;-88
2023/11/02 07:56:44;;;;;;;18.90;12.17;;;;;;;;;;4374195;32;319307;-88
2023/11/02 07:59:11;;;;;;;18.33;12.77;;;;;;;;;;4365987;32;319668;-83
2023/11/02 08:01:38;;;;;;;18.03;11.87;;;;;;;;;;4375856;32;319539;-83
2023/11/02 08:04:05;;;;;;;17.93;12.57;;;;;;;;;;4357509;32;319325;-88
2023/11/02 08:06:34;;;;;;;19.30;13.37;;;;;;;;;;4375263;32;319282;-84
2023/11/02 08:09:01;;;;;;;25.10;13.67;;;;;;;;;;4365247;32;319112;-87
2023/11/02 08:11:29;;;;;;;16.00;11.93;;;;;;;;;;4375525;32;319328;-89
2023/11/02 08:13:56;;;;;;;18.07;12.97;;;;;;;;;;4366336;32;319446;-87
2023/11/02 08:16:23;;;;;;;16.23;11.80;;;;;;;;;;4367800;32;319730;-93
2023/11/02 08:18:49;;;;;;;20.10;13.47;;;;;;;;;;4357740;32;318587;-90
2023/11/02 08:21:16;;;;;;;150.93;78.00;;;;;;;;;;4362971;32;335225;-86
2023/11/02 08:23:43;;;;;;;67.70;37.93;;;;;;;;;;4376412;32;320723;-83
2023/11/02 08:26:10;;;;;;;36.67;21.73;;;;;;;;;;4357311;32;319364;-88
2023/11/02 08:28:39;;;;;;;31.37;19.17;;;;;;;;;;4374090;32;319248;-90
2023/11/02 08:31:06;;;;;;;28.13;20.70;;;;;;;;;;4364480;32;319238;-90
2023/11/02 08:33:33;;;;;;;25.47;14.93;;;;;;;;;;4356546;32;319495;-90
2023/11/02 08:35:59;;;;;;;21.23;13.67;;;;;;;;;;4364651;32;319718;-88
2023/11/02 08:38:26;;;;;;;21.20;14.50;;;;;;;;;;4372339;32;319495;-86
2023/11/02 08:40:53;;;;;;;24.37;15.50;;;;;;;;;;4375380;32;318616;-86
2023/11/02 08:43:20;;;;;;;27.83;14.48;;;;;;;;;;4365500;32;318613;-87
2023/11/02 08:45:48;;;;;;;20.35;14.60;;;;;;;;;;4374829;32;318912;-87
2023/11/02 08:48:15;;;;;;;32.10;15.17;;;;;;;;;;4358737;32;319456;-87
2023/11/02 08:50:41;;;;;;;22.77;12.93;;;;;;;;;;4385968;32;319418;-85
2023/11/02 08:53:08;;;;;;;23.37;11.07;;;;;;;;;;4369868;32;344474;-86
2023/11/02 08:55:35;;;;;;;16.80;12.03;;;;;;;;;;4375978;32;318727;-87
2023/11/02 08:58:02;;;;;;;31.10;18.10;;;;;;;;;;4359473;32;319246;-86
2023/11/02 09:00:28;;;;;;;31.30;14.10;;;;;;;;;;4374240;32;319225;-86
2023/11/02 09:02:56;;;;;;;20.30;12.27;;;;;;;;;;4375828;32;318754;-85
2023/11/02 09:05:23;;;;;;;49.80;29.37;;;;;;;;;;4363522;32;419274;-86
2023/11/02 09:07:50;;;;;;;42.88;25.90;;;;;;;;;;4376347;32;319196;-86
2023/11/02 09:10:17;;;;;;;21.17;14.48;;;;;;;;;;4344624;32;319318;-87
2023/11/02 09:12:44;;;;;;;18.37;13.02;;;;;;;;;;4374943;32;318601;-87
2023/11/02 09:15:10;;;;;;;23.53;14.13;;;;;;;;;;4363403;32;319301;-87
2023/11/02 09:17:37;;;;;;;17.00;11.95;;;;;;;;;;4373624;32;319434;-86
2023/11/02 09:20:10;;;;;;;16.80;11.67;;;;;;;;;;4356667;32;319447;-87
2023/11/02 09:22:37;;;;;;;17.02;12.07;;;;;;;;;;4374784;32;319154;-86
2023/11/02 09:25:04;;;;;;;17.75;10.73;;;;;;;;;;4365770;32;319390;-86
2023/11/02 09:27:31;;;;;;;16.92;12.95;;;;;;;;;;4378334;32;319624;-86
2023/11/02 09:29:57;;;;;;;17.00;12.43;;;;;;;;;;4365872;32;319277;-86
2023/11/02 09:32:25;;;;;;;18.25;11.18;;;;;;;;;;4370605;32;319469;-86
2023/11/02 09:34:53;;;;;;;16.33;10.67;;;;;;;;;;4376448;32;318766;-86
2023/11/02 09:37:21;;;;;;;15.75;11.07;;;;;;;;;;4367156;32;319134;-85
2023/11/02 09:39:48;;;;;;;12.77;10.83;;;;;;;;;;4378330;32;318586;-86
2023/11/02 09:42:16;;;;;;;14.13;9.50;;;;;;;;;;4359944;32;319170;-88
2023/11/02 09:44:42;;;;;;;17.77;9.67;;;;;;;;;;4381161;32;317677;-88
2023/11/02 09:47:09;;;;;;;16.13;8.50;;;;;;;;;;4369598;32;341118;-87
2023/11/02 09:49:36;;;;;;;18.30;7.83;;;;;;;;;;4377421;32;317994;-84
2023/11/02 09:52:04;;;;;;;15.45;6.80;;;;;;;;;;4371905;32;318388;-85
2023/11/02 09:54:33;;;;;;;15.52;8.50;;;;;;;;;;4376869;32;317981;-86
2023/11/02 09:57:01;;;;;;;13.85;6.87;;;;;;;;;;4344833;32;349874;-87
2023/11/02 09:59:29;;;;;;;12.65;7.15;;;;;;;;;;4377055;32;318125;-84
2023/11/02 10:01:57;;;;;;;12.93;7.65;;;;;;;;;;4364588;32;318509;-82
2023/11/02 10:04:24;;;;;;;13.10;7.23;;;;;;;;;;4369104;32;318476;-95
2023/11/02 10:06:52;;;;;;;11.82;7.37;;;;;;;;;;4374157;32;317726;-87
2023/11/02 10:09:19;;;;;;;11.82;7.57;;;;;;;;;;4363805;32;329984;-82
2023/11/02 10:11:48;;;;;;;24.42;7.68;;;;;;;;;;4375144;32;317004;-86
2023/11/02 10:14:15;;;;;;;13.50;6.55;;;;;;;;;;4355397;32;318447;-85
2023/11/02 10:16:42;;;;;;;14.05;7.50;;;;;;;;;;4361871;32;317899;-85
2023/11/02 10:19:10;;;;;;;15.88;9.10;;;;;;;;;;4354369;32;318478;-84
2023/11/02 10:21:39;;;;;;;17.85;9.52;;;;;;;;;;4359293;32;318590;-82
2023/11/02 10:24:08;;;;;;;17.70;7.87;;;;;;;;;;4357100;32;318439;-84
2023/11/02 10:26:36;;;;;;;16.58;8.07;;;;;;;;;;4374605;32;317529;-87
2023/11/02 10:29:05;;;;;;;16.77;8.27;;;;;;;;;;4368679;32;317972;-80
2023/11/02 10:31:33;;;;;;;14.90;8.73;;;;;;;;;;4380866;32;318591;-83
2023/11/02 10:34:01;;;;;;;23.83;8.13;;;;;;;;;;4363285;32;367960;-80
2023/11/02 10:36:30;;;;;;;22.83;8.52;;;;;;;;;;4378516;32;318910;-86
2023/11/02 10:38:57;;;;;;;14.43;7.30;;;;;;;;;;4366089;32;318353;-89
2023/11/02 10:41:23;;;;;;;22.10;7.50;;;;;;;;;;4373313;32;317642;-89
2023/11/02 10:43:50;;;;;;;15.00;8.80;;;;;;;;;;4374118;32;318371;-86
2023/11/02 10:46:20;;;;;;;20.73;7.47;;;;;;;;;;4356807;32;318232;-89
2023/11/02 10:48:51;;;;;;;11.82;6.90;;;;;;;;;;4373844;32;317783;-87
2023/11/02 10:51:19;;;;;;;20.17;7.75;;;;;;;;;;4364208;32;318578;-89
2023/11/02 10:54:03;;;;;;;22.77;8.02;;;;;;;;;;4372851;32;318947;-88
2023/11/02 10:56:39;;;;;;;17.42;9.10;;;;;;;;;;4359152;32;419622;-89
2023/11/02 10:59:07;;;;;;;18.33;8.80;;;;;;;;;;4362516;32;318434;-87
2023/11/02 11:01:37;;;;;;;19.67;7.10;;;;;;;;;;4373407;32;318587;-90
2023/11/02 11:04:05;;;;;;;12.82;6.72;;;;;;;;;;4355855;32;318653;-88
2023/11/02 11:06:33;;;;;;;17.75;6.72;;;;;;;;;;4373716;32;319300;-88
2023/11/02 11:09:00;;;;;;;17.42;7.68;;;;;;;;;;4362489;32;317743;-86
2023/11/02 11:11:29;;;;;;;17.70;9.30;;;;;;;;;;4376339;32;318220;-85
2023/11/02 11:13:57;;;;;;;14.50;5.45;;;;;;;;;;4362518;32;319095;-85
2023/11/02 11:16:26;;;;;;;11.27;5.40;;;;;;;;;;4365121;32;318346;-83
2023/11/02 11:18:54;;;;;;;19.77;7.05;;;;;;;;;;4371351;32;317793;-84
2023/11/02 11:21:23;;;;;;;14.48;6.18;;;;;;;;;;4362057;32;318082;-83
2023/11/02 11:23:50;;;;;;;16.80;5.18;;;;;;;;;;4372583;32;317788;-83
2023/11/02 11:26:17;;;;;;;14.43;6.07;;;;;;;;;;4354752;32;318274;-94
2023/11/02 11:28:44;;;;;;;11.73;5.47;;;;;;;;;;4373057;32;318273;-86
2023/11/02 11:31:44;;;;;;;20.83;6.05;;;;;;;;;;4363403;32;318799;-93
2023/11/02 11:34:12;;;;;;;12.60;6.28;;;;;;;;;;4353826;32;317669;-85
2023/11/02 11:36:39;;;;;;;11.05;6.03;;;;;;;;;;4348674;32;318500;-91
2023/11/02 11:39:31;;;;;;;10.68;5.30;;;;;;;;;;4356977;32;318721;-91
2023/11/02 11:41:59;;;;;;;17.98;5.80;;;;;;;;;;4341243;32;419438;-89
2023/11/02 11:44:26;;;;;;;12.82;6.72;;;;;;;;;;4376276;32;318227;-82
2023/11/02 11:46:54;;;;;;;13.57;5.78;;;;;;;;;;4366481;32;318367;-83
2023/11/02 11:49:51;;;;;;;20.10;6.60;;;;;;;;;;4377054;32;318182;-82
2023/11/02 11:52:28;;;;;;;13.00;6.28;;;;;;;;;;4350119;32;418953;-82
2023/11/02 11:54:55;;;;;;;9.32;5.15;;;;;;;;;;4351831;32;318277;-84
2023/11/02 11:57:54;;;;;;;11.00;5.10;;;;;;;;;;4364404;32;317530;-85
2023/11/02 12:00:22;;;;;;;14.15;5.03;;;;;;;;;;4347742;32;418819;-82
2023/11/02 12:02:54;;;;;;;10.05;5.57;;;;;;;;;;4349881;32;331728;-84
2023/11/02 12:05:56;;;;;;;16.95;6.35;;;;;;;;;;4359578;32;342507;-84
2023/11/02 12:08:24;;;;;;;17.30;6.50;;;;;;;;;;4347235;32;420063;-86
2023/11/02 12:10:55;;;;;;;13.38;4.90;;;;;;;;;;4361327;32;318764;-92
2023/11/02 12:13:23;;;;;;;14.95;6.60;;;;;;;;;;4375028;32;318391;-92
2023/11/02 12:15:58;;;;;;;15.23;5.68;;;;;;;;;;4358313;32;318371;-91
2023/11/02 12:18:29;;;;;;;10.40;5.72;;;;;;;;;;4375899;32;318143;-84
2023/11/02 12:20:59;;;;;;;10.35;5.32;;;;;;;;;;4364914;32;317845;-82
2023/11/02 12:23:34;;;;;;;27.05;8.15;;;;;;;;;;4373942;32;349891;-92
2023/11/02 12:26:03;;;;;;;13.32;5.00;;;;;;;;;;4356424;32;419111;-88
2023/11/02 12:28:45;;;;;;;11.25;5.22;;;;;;;;;;4377159;32;318317;-91
2023/11/02 12:31:14;;;;;;;10.88;5.25;;;;;;;;;;4365174;32;417279;-90
2023/11/02 12:33:47;;;;;;;14.60;6.20;;;;;;;;;;4363178;32;318425;-81
2023/11/02 12:36:16;;;;;;;12.35;6.28;;;;;;;;;;4370072;32;318805;-85
2023/11/02 12:38:45;;;;;;;7.10;3.87;;;;;;;;;;4351221;32;318851;-93
2023/11/02 12:41:12;;;;;;;10.20;4.15;;;;;;;;;;4361732;32;317247;-85
2023/11/02 12:43:40;;;;;;;10.82;5.07;;;;;;;;;;4361632;32;317460;-83
2023/11/02 12:46:10;;;;;;;8.20;4.68;;;;;;;;;;4372512;32;318317;-83
2023/11/02 12:48:38;;;;;;;10.30;5.35;;;;;;;;;;4362154;32;322889;-83
2023/11/02 12:51:19;;;;;;;13.73;5.80;;;;;;;;;;4374638;32;317569;-82
2023/11/02 12:53:46;;;;;;;9.68;5.05;;;;;;;;;;4345042;32;318268;-89
2023/11/02 12:56:19;;;;;;;10.77;5.32;;;;;;;;;;4374531;32;316674;-89
2023/11/02 12:58:47;;;;;;;11.63;5.97;;;;;;;;;;4362919;32;318348;-90
2023/11/02 13:01:15;;;;;;;11.02;5.03;;;;;;;;;;4375886;32;318338;-90
2023/11/02 13:03:59;;;;;;;9.98;5.28;;;;;;;;;;4363235;32;317730;-81
2023/11/02 13:06:28;;;;;;;13.00;5.25;;;;;;;;;;4375035;32;317655;-91
2023/11/02 13:09:07;;;;;;;6.97;4.50;;;;;;;;;;4367088;32;318354;-88
2023/11/02 13:11:34;;;;;;;11.60;5.10;;;;;;;;;;4366240;32;317317;-84
2023/11/02 13:14:01;;;;;;;14.43;5.40;;;;;;;;;;4368086;32;318708;-83
2023/11/02 13:16:28;;;;;;;12.55;5.30;;;;;;;;;;4374533;32;318216;-86
2023/11/02 13:18:56;;;;;;;7.75;4.62;;;;;;;;;;4363738;32;318593;-84
2023/11/02 13:21:24;;;;;;;7.28;4.15;;;;;;;;;;4375819;32;317197;-84
2023/11/02 13:23:53;;;;;;;10.60;4.80;;;;;;;;;;4356679;32;317219;-91
2023/11/02 13:26:22;;;;;;;8.55;4.60;;;;;;;;;;4375530;32;318227;-88
2023/11/02 13:28:49;;;;;;;6.82;4.18;;;;;;;;;;4365669;32;317360;-84
2023/11/02 13:31:16;;;;;;;11.80;5.10;;;;;;;;;;4375725;32;317367;-93
2023/11/02 13:33:43;;;;;;;12.98;5.47;;;;;;;;;;4359581;32;318360;-83
2023/11/02 13:36:11;;;;;;;17.58;5.28;;;;;;;;;;4375458;32;318334;-89
2023/11/02 13:38:39;;;;;;;7.75;5.30;;;;;;;;;;4360679;32;318289;-87
2023/11/02 13:41:09;;;;;;;9.25;5.00;;;;;;;;;;4374747;32;317196;-82
2023/11/02 13:43:36;;;;;;;9.15;4.72;;;;;;;;;;4363671;32;317299;-85
2023/11/02 13:46:03;;;;;;;7.78;4.28;;;;;;;;;;4369336;32;317275;-83
2023/11/02 13:48:30;;;;;;;10.55;4.10;;;;;;;;;;4374282;32;321453;-84
2023/11/02 13:50:58;;;;;;;17.58;4.95;;;;;;;;;;4361346;32;418625;-81
2023/11/02 13:53:25;;;;;;;11.90;6.10;;;;;;;;;;4374713;32;318308;-81
2023/11/02 13:55:53;;;;;;;13.45;4.93;;;;;;;;;;4357582;32;318281;-90
2023/11/02 13:58:21;;;;;;;13.07;4.65;;;;;;;;;;4373028;32;347063;-83
2023/11/02 14:00:50;;;;;;;7.43;4.20;;;;;;;;;;4365895;32;318511;-86
2023/11/02 14:03:16;;;;;;;9.63;4.53;;;;;;;;;;4373671;32;317158;-90
2023/11/02 14:05:43;;;;;;;10.32;5.70;;;;;;;;;;4357134;32;317298;-84
2023/11/02 14:08:10;;;;;;;10.32;5.25;;;;;;;;;;4374093;32;318330;-93
2023/11/02 14:10:37;;;;;;;10.82;5.55;;;;;;;;;;4364069;32;317608;-89
2023/11/02 14:13:04;;;;;;;8.70;5.22;;;;;;;;;;4373602;32;318236;-89
2023/11/02 14:15:33;;;;;;;18.00;6.00;;;;;;;;;;4375335;32;317095;-90
2023/11/02 14:18:00;;;;;;;8.95;4.55;;;;;;;;;;4354377;32;418818;-83
2023/11/02 14:20:27;;;;;;;8.73;4.95;;;;;;;;;;4373305;32;316565;-85
2023/11/02 14:22:53;;;;;;;11.80;5.05;;;;;;;;;;4363115;32;317154;-84
2023/11/02 14:25:20;;;;;;;13.35;5.22;;;;;;;;;;4372937;32;345730;-83
2023/11/02 14:27:48;;;;;;;13.07;4.50;;;;;;;;;;4357764;32;318268;-84
2023/11/02 14:30:14;;;;;;;9.35;4.20;;;;;;;;;;4373479;32;318670;-85
2023/11/02 14:32:42;;;;;;;9.73;4.60;;;;;;;;;;4365089;32;317149;-83
2023/11/02 14:35:11;;;;;;;7.60;3.75;;;;;;;;;;4373606;32;317569;-84